Time;durP1;ratioP1;P1;durP2;ratioP2;P2;SDS_P1;SDS_P2;PMS_P1;PMS_P2;Temp;Humidity;BMP_temperature;BMP_pressure;BME280_temperature;BME280_humidity;BME280_pressure;Samples;Min_cycle;Max_cycle;Signal;HPM_P1;HPM_P2
2022/05/21 00:01:30;;;;;;;;;;;;;;;27.47;62.45;100887.13;5035810;28;20057;-62
2022/05/21 00:04:17;;;;;;;2.22;2.00;;;;;;;27.50;62.35;100883.94;5035126;28;20391;-62
2022/05/21 00:07:01;;;;;;;2.75;1.83;;;;;;;27.50;62.43;100892.97;5020336;28;20044;-62
2022/05/21 00:09:45;;;;;;;;;;;;;;;27.45;62.34;100901.06;5020658;28;20096;-62
2022/05/21 00:12:29;;;;;;;2.33;2.13;;;;;;;27.47;62.77;100903.56;5020184;28;19959;-62
2022/05/21 00:15:15;;;;;;;2.58;2.33;;;;;;;27.48;62.64;100910.69;5020100;28;20079;-62
2022/05/21 00:18:00;;;;;;;2.20;2.00;;;;;;;27.47;62.53;100915.34;5019890;28;20433;-62
2022/05/21 00:20:47;;;;;;;2.33;2.13;;;;;;;27.46;62.91;100916.44;5019774;28;20096;-62
2022/05/21 00:23:33;;;;;;;2.22;2.03;;;;;;;27.46;62.84;100927.38;5034719;28;20095;-62
2022/05/21 00:26:17;;;;;;;2.30;2.10;;;;;;;27.45;62.75;100933.09;5020092;28;20075;-62
2022/05/21 00:29:02;;;;;;;3.03;2.20;;;;;;;27.43;63.11;100937.97;5019957;28;20410;-62
2022/05/21 00:31:47;;;;;;;2.10;1.98;;;;;;;27.43;62.76;100946.19;5019640;28;20052;-62
2022/05/21 00:34:31;;;;;;;1.92;1.80;;;;;;;27.41;63.16;100954.63;5020127;28;20589;-62
2022/05/21 00:37:15;;;;;;;2.15;1.95;;;;;;;27.41;63.01;100960.13;5034485;28;20045;-62
2022/05/21 00:39:59;;;;;;;2.05;1.85;;;;;;;27.40;63.00;100966.66;5019404;28;20076;-62
2022/05/21 00:42:44;;;;;;;;;;;;;;;27.35;63.22;100976.66;5019826;28;20084;-62
2022/05/21 00:45:30;;;;;;;2.47;1.90;;;;;;;27.39;63.20;100975.94;5020022;28;19920;-62
2022/05/21 00:48:14;;;;;;;1.85;1.73;;;;;;;27.38;63.14;100966.06;5005666;28;20103;-62
2022/05/21 00:50:57;;;;;;;;;;;;;;;27.33;63.04;100978.81;5005717;28;20052;-62
2022/05/21 00:53:43;;;;;;;2.20;1.90;;;;;;;27.35;63.05;100973.91;5019476;28;19920;-62
2022/05/21 00:56:29;;;;;;;2.10;1.95;;;;;;;27.34;63.39;100984.06;5019321;28;20504;-62
2022/05/21 01:02:20;;;;;;;2.03;1.83;;;;;;;27.34;63.14;100980.47;5022058;28;20144;-62
2022/05/21 01:05:07;;;;;;;1.80;1.70;;;;;;;27.33;63.16;100979.63;5019504;28;20048;-62
2022/05/21 01:07:54;;;;;;;2.28;2.08;;;;;;;27.33;63.53;100984.28;5019492;28;20048;-62
2022/05/21 01:10:41;;;;;;;2.17;2.08;;;;;;;27.31;63.19;100984.50;5018854;28;20133;-62
2022/05/21 01:13:28;;;;;;;2.50;1.85;;;;;;;27.31;63.16;100981.75;5019080;28;20056;-62
2022/05/21 01:16:16;;;;;;;2.05;1.90;;;;;;;27.31;63.25;100980.94;5019092;28;20457;-62
2022/05/21 01:19:05;;;;;;;2.00;1.88;;;;;;;27.29;63.25;100978.44;5034224;28;20075;-62
2022/05/21 01:21:50;;;;;;;1.63;1.52;;;;;;;27.27;63.03;100977.84;5019015;28;20071;-62
2022/05/21 01:24:33;;;;;;;;;;;;;;;27.22;63.61;100983.19;5034351;28;20095;-62
2022/05/21 01:27:19;;;;;;;2.10;1.90;;;;;;;27.25;63.66;100982.72;5033647;28;19976;-62
2022/05/21 01:30:05;;;;;;;2.00;1.80;;;;;;;27.24;63.69;100992.00;5018765;28;20103;-62
2022/05/21 01:32:50;;;;;;;1.98;1.88;;;;;;;27.23;63.49;100995.78;5017926;28;20504;-62
2022/05/21 01:35:34;;;;;;;1.92;1.83;;;;;;;27.21;63.74;101000.66;5004600;28;20167;-62
2022/05/21 01:38:22;;;;;;;2.13;1.92;;;;;;;27.22;63.59;101002.34;5033724;28;20099;-62
2022/05/21 01:41:09;;;;;;;2.05;1.80;;;;;;;27.22;63.44;101007.00;5033634;28;20616;-62
2022/05/21 01:46:56;;;;;;;2.00;1.90;;;;;;;27.19;63.74;101021.97;5033356;28;20521;-62
2022/05/21 01:49:42;;;;;;;1.90;1.80;;;;;;;27.19;63.74;101018.44;5033237;28;20083;-62
2022/05/21 01:52:26;;;;;;;1.80;1.60;;;;;;;27.17;63.73;101021.38;5018717;28;20095;-62
2022/05/21 01:55:09;;;;;;;;;;;;;;;27.11;63.63;101030.47;5018629;28;20421;-62
2022/05/21 01:57:53;;;;;;;1.75;1.65;;;;;;;27.15;63.81;101025.41;5033762;28;19932;-62
2022/05/21 02:00:38;;;;;;;2.70;1.90;;;;;;;27.15;63.72;101034.47;5033354;28;20055;-62
2022/05/21 02:03:26;;;;;;;1.80;1.70;;;;;;;27.14;63.94;101041.03;5018602;28;20048;-62
2022/05/21 02:06:10;;;;;;;1.80;1.70;;;;;;;27.13;63.72;101044.81;5033348;28;20067;-62
2022/05/21 02:08:53;;;;;;;;;;;;;;;27.08;63.67;101046.53;5033600;28;20512;-61
2022/05/21 02:11:38;;;;;;;1.80;1.70;;;;;;;27.07;63.67;101045.72;5018421;28;19919;-61
2022/05/21 02:14:22;;;;;;;1.80;1.70;;;;;;;27.09;63.81;101049.06;5033574;28;20044;-61
2022/05/21 02:17:06;;;;;;;2.65;1.83;;;;;;;27.09;63.94;101053.72;5032944;28;20128;-61
2022/05/21 02:19:50;;;;;;;1.70;1.60;;;;;;;27.08;63.69;101052.84;5018257;28;20115;-62
2022/05/21 02:22:36;;;;;;;;;;;;;;;27.02;63.72;101052.97;5033373;28;20057;-61
2022/05/21 02:25:20;;;;;;;2.10;1.90;;;;;;;27.05;63.95;101049.75;5032916;28;19970;-61
2022/05/21 02:28:04;;;;;;;;;;;;;;;27.00;63.95;101061.38;5033637;28;20044;-62
2022/05/21 02:30:48;;;;;;;;;;;;;;;26.98;63.87;101059.13;5033283;28;20392;-62
2022/05/21 02:33:32;;;;;;;1.40;1.30;;;;;;;27.01;63.90;101057.56;5033176;28;19947;-61
2022/05/21 02:36:16;;;;;;;1.77;1.58;;;;;;;27.00;63.88;101066.88;5032796;28;20408;-61
2022/05/21 02:45:27;;;;;;;1.70;1.60;;;;;;;27.00;63.94;101071.53;4974641;28;20102;-62
2022/05/21 02:48:11;;;;;;;1.70;1.50;;;;;;;26.98;64.11;101074.47;5035627;28;20049;-62
2022/05/21 02:50:55;;;;;;;1.60;1.50;;;;;;;26.98;63.92;101083.75;5036324;28;20056;-61
2022/05/21 02:53:39;;;;;;;1.83;1.73;;;;;;;26.97;64.24;101076.63;5036455;28;20052;-62
2022/05/21 02:56:23;;;;;;;1.60;1.50;;;;;;;26.97;63.87;101087.56;5036295;28;20175;-61
2022/05/21 02:59:07;;;;;;;1.70;1.60;;;;;;;26.96;63.88;101096.84;5036372;28;20413;-62
2022/05/21 03:01:50;;;;;;;;;;;;;;;26.90;63.93;101092.28;5036874;28;20077;-62
2022/05/21 03:04:35;;;;;;;1.63;1.52;;;;;;;26.92;63.86;101088.25;5036514;28;20280;-61
2022/05/21 03:07:19;;;;;;;1.60;1.48;;;;;;;26.92;64.12;101086.34;5036170;28;20044;-62
2022/05/21 03:10:21;;;;;;;1.95;1.75;;;;;;;26.92;63.81;101087.41;5036360;28;20531;-62
2022/05/21 03:13:05;;;;;;;1.50;1.40;;;;;;;26.90;64.15;101092.28;5023780;28;20049;-61
2022/05/21 03:15:49;;;;;;;;;;;;;;;26.84;64.15;101094.03;5036388;28;20155;-61
2022/05/21 03:18:35;;;;;;;1.60;1.50;;;;;;;26.88;64.13;101099.88;5021356;28;20016;-62
2022/05/21 03:21:19;;;;;;;1.80;1.70;;;;;;;26.88;64.07;101092.50;5021198;28;20129;-61
2022/05/21 03:24:03;;;;;;;2.03;1.67;;;;;;;26.86;64.11;101099.28;5035901;28;20092;-62
2022/05/21 03:26:47;;;;;;;1.45;1.35;;;;;;;26.86;63.97;101107.50;5036144;28;20047;-61
2022/05/21 03:29:31;;;;;;;;;;;;;;;26.79;64.13;101096.63;5021457;28;20048;-61
2022/05/21 03:32:15;;;;;;;1.88;1.77;;;;;;;26.81;64.15;101094.50;5035769;28;19924;-62
2022/05/21 03:34:59;;;;;;;1.92;1.70;;;;;;;26.83;63.84;101102.47;5035912;28;20457;-61
2022/05/21 03:37:44;;;;;;;1.80;1.70;;;;;;;26.82;63.75;101106.25;5035963;28;20508;-61
2022/05/21 03:40:30;;;;;;;1.67;1.58;;;;;;;26.82;63.77;101106.25;5020691;28;20051;-62
2022/05/21 03:43:14;;;;;;;1.42;1.33;;;;;;;26.78;63.68;101105.91;5035529;28;20056;-61
2022/05/21 03:45:59;;;;;;;;;;;;;;;26.75;64.05;101102.78;5035982;28;20090;-62
2022/05/21 03:48:43;;;;;;;2.25;1.55;;;;;;;26.77;63.79;101108.88;5035709;28;19951;-62
2022/05/21 03:51:29;;;;;;;1.55;1.45;;;;;;;26.77;63.82;101103.41;5035265;28;20469;-62
2022/05/21 03:54:14;;;;;;;1.55;1.45;;;;;;;26.77;63.68;101096.00;5035332;28;20044;-62
2022/05/21 03:56:58;;;;;;;1.52;1.42;;;;;;;26.76;63.75;101102.53;5019735;28;20556;-62
2022/05/21 03:59:43;;;;;;;1.90;1.23;;;;;;;26.76;63.85;101107.19;5035382;28;20049;-61
2022/05/21 04:02:27;;;;;;;1.40;1.30;;;;;;;26.74;63.67;101099.22;5035214;28;20535;-62
2022/05/21 04:05:11;;;;;;;;;;;;;;;26.69;63.78;101103.69;5035643;28;20072;-62
2022/05/21 04:07:55;;;;;;;;;;;;;;;26.67;63.66;101108.56;5035815;28;19970;-61
2022/05/21 04:10:39;;;;;;;1.55;1.40;;;;;;;26.70;63.82;101113.56;5020137;28;19951;-62
2022/05/21 04:13:23;;;;;;;;;;;;;;;26.66;63.58;101115.91;5035691;28;20048;-61
2022/05/21 04:16:07;;;;;;;2.08;1.67;;;;;;;26.69;63.54;101111.91;5034904;28;20388;-61
2022/05/21 04:18:53;;;;;;;1.60;1.50;;;;;;;26.69;63.88;101129.16;5035143;28;20079;-62
2022/05/21 04:21:37;;;;;;;1.45;1.30;;;;;;;26.70;63.82;101121.78;5035126;28;20137;-61
2022/05/21 04:24:22;;;;;;;1.27;1.17;;;;;;;26.70;63.48;101124.50;5034742;28;20095;-62
2022/05/21 04:27:09;;;;;;;1.38;1.27;;;;;;;26.69;63.70;101122.84;5034743;28;20048;-62
2022/05/21 04:29:54;;;;;;;1.48;1.38;;;;;;;26.68;63.44;101132.13;5034824;28;20555;-61
2022/05/21 04:32:37;;;;;;;;;;;;;;;26.64;63.65;101136.38;5020630;28;20053;-62
2022/05/21 04:35:22;;;;;;;1.42;1.33;;;;;;;26.66;63.54;101139.72;5034777;28;20015;-61
2022/05/21 04:38:06;;;;;;;1.48;1.38;;;;;;;26.67;63.54;101124.97;5019543;28;20577;-62
2022/05/21 04:40:50;;;;;;;1.70;1.60;;;;;;;26.68;63.66;101132.13;5034363;28;20123;-62
2022/05/21 04:43:34;;;;;;;;;;;;;;;26.62;63.62;101128.41;5035103;28;20528;-61
2022/05/21 04:46:20;;;;;;;1.67;1.58;;;;;;;26.66;63.60;101132.34;5019406;28;19919;-61
2022/05/21 04:49:04;;;;;;;1.58;1.48;;;;;;;26.68;63.54;101132.13;5019468;28;20171;-61
2022/05/21 04:51:51;;;;;;;1.40;1.30;;;;;;;26.67;63.51;101124.97;5034523;28;20045;-61
2022/05/21 04:54:36;;;;;;;1.45;1.35;;;;;;;26.68;63.30;101126.66;5034452;28;20047;-61
2022/05/21 04:57:20;;;;;;;1.48;1.38;;;;;;;26.68;63.10;101121.19;5019409;28;20520;-61
2022/05/21 05:00:06;;;;;;;1.40;1.30;;;;;;;26.68;63.39;101134.84;5034208;28;20564;-62
2022/05/21 05:02:52;;;;;;;1.60;1.50;;;;;;;26.69;63.04;101139.25;5034555;28;20048;-61
2022/05/21 05:05:39;;;;;;;2.00;1.48;;;;;;;26.69;62.96;101128.31;5019289;28;20048;-61
2022/05/21 05:08:23;;;;;;;2.28;1.50;;;;;;;26.69;63.10;101131.06;5033884;28;20048;-61
2022/05/21 05:11:07;;;;;;;1.40;1.30;;;;;;;26.68;62.89;101126.66;5034103;28;20064;-61
2022/05/21 05:13:51;;;;;;;1.45;1.35;;;;;;;26.69;62.95;101139.25;5034024;28;20052;-61
2022/05/21 05:16:35;;;;;;;1.60;1.50;;;;;;;26.69;62.71;101136.53;5019043;28;20397;-61
2022/05/21 05:19:19;;;;;;;1.48;1.38;;;;;;;26.68;62.84;101137.59;5019018;28;20447;-61
2022/05/21 05:22:03;;;;;;;1.63;1.50;;;;;;;26.68;62.65;101137.59;5033761;28;20425;-61
2022/05/21 05:24:47;;;;;;;;;;;;;;;26.64;62.53;101139.13;5034079;28;20128;-61
2022/05/21 05:27:31;;;;;;;1.50;1.40;;;;;;;26.65;62.33;101127.94;5033684;28;19924;-61
2022/05/21 05:30:17;;;;;;;1.40;1.30;;;;;;;26.68;62.35;101132.13;5033518;28;20060;-61
2022/05/21 05:33:00;;;;;;;1.40;1.30;;;;;;;26.67;62.74;101130.44;5033727;28;20417;-61
2022/05/21 05:35:44;;;;;;;;;;;;;;;26.63;62.47;101135.53;5019176;28;20469;-61
2022/05/21 05:38:28;;;;;;;1.27;1.25;;;;;;;26.66;62.43;101139.72;5033769;28;19952;-61
2022/05/21 05:41:13;;;;;;;1.40;1.30;;;;;;;26.66;62.27;101134.25;5033538;28;20480;-62
2022/05/21 05:43:58;;;;;;;1.48;1.38;;;;;;;26.67;61.94;101142.22;5033900;28;20045;-61
2022/05/21 05:46:42;;;;;;;1.05;1.05;;;;;;;26.66;62.07;101147.94;5033325;28;20041;-61
2022/05/21 05:49:25;;;;;;;1.27;1.20;;;;;;;26.67;61.95;101141.38;5033124;28;20117;-62
2022/05/21 05:52:09;;;;;;;;;;;;;;;26.63;62.00;101145.63;5010877;22;20061;-62
2022/05/21 05:54:53;;;;;;;1.30;1.20;;;;;;;26.66;61.95;101150.66;4998963;28;19979;-63
2022/05/21 05:57:38;;;;;;;1.13;1.13;;;;;;;26.68;61.63;101143.06;4998705;28;20100;-63
2022/05/21 06:00:23;;;;;;;1.58;1.38;;;;;;;26.69;61.87;101144.72;5013387;28;20053;-63
2022/05/21 06:03:07;;;;;;;1.00;1.00;;;;;;;26.69;61.78;101145.59;5013715;28;20088;-63
2022/05/21 06:05:52;;;;;;;;;;;;;;;26.65;61.60;101147.06;4999248;28;20045;-63
2022/05/21 06:08:37;;;;;;;1.40;1.10;;;;;;;26.70;61.65;101143.66;4999014;28;19921;-63
2022/05/21 06:11:20;;;;;;;;;;;;;;;26.66;61.47;101151.47;5013854;28;20168;-63
2022/05/21 06:14:05;;;;;;;1.45;1.35;;;;;;;26.69;61.36;101140.09;5013372;28;19939;-63
2022/05/21 06:16:49;;;;;;;1.40;1.30;;;;;;;26.71;61.05;101148.06;5013306;28;20560;-63
2022/05/21 06:19:33;;;;;;;;;;;;;;;26.67;61.34;101147.69;5000216;28;20509;-63
2022/05/21 06:22:17;;;;;;;1.17;1.10;;;;;;;26.69;61.24;101155.66;5017260;28;19966;-63
2022/05/21 06:25:01;;;;;;;1.98;1.40;;;;;;;26.71;61.27;101159.84;4988850;28;20108;-63
2022/05/21 06:27:50;;;;;;;1.30;1.20;;;;;;;26.73;60.93;101159.59;5002697;28;20453;-63
2022/05/21 06:30:37;;;;;;;2.58;1.10;;;;;;;26.73;61.21;101162.34;5017556;28;20088;-63
2022/05/21 06:33:27;;;;;;;1.20;1.10;;;;;;;26.71;61.07;101167.22;5002459;28;20053;-63
2022/05/21 06:36:14;;;;;;;1.33;1.23;;;;;;;26.71;60.96;101176.28;5017233;28;20049;-63
2022/05/21 06:38:58;;;;;;;1.27;1.17;;;;;;;26.71;60.94;101175.41;5002539;28;20045;-63
2022/05/21 06:41:42;;;;;;;1.95;1.30;;;;;;;26.70;60.79;101173.75;5002237;28;20048;-63
2022/05/21 06:44:26;;;;;;;1.40;1.30;;;;;;;26.71;60.88;101175.41;5002294;28;20069;-63
2022/05/21 06:47:10;;;;;;;1.15;1.10;;;;;;;26.71;60.77;101169.94;5017102;28;20096;-63
2022/05/21 06:49:55;;;;;;;;;;;;;;;26.66;60.84;101170.63;5017732;28;20049;-63
2022/05/21 06:52:39;;;;;;;1.23;1.13;;;;;;;26.68;60.93;101165.78;5016970;28;20328;-63
2022/05/21 06:55:24;;;;;;;1.10;1.00;;;;;;;26.70;61.03;101162.81;5016585;28;20057;-63
2022/05/21 06:58:08;;;;;;;1.25;1.15;;;;;;;26.68;60.70;101159.47;5001737;28;20048;-63
2022/05/21 07:00:52;;;;;;;1.52;1.27;;;;;;;26.69;60.61;101150.19;5016761;28;20072;-63
2022/05/21 07:03:36;;;;;;;1.25;1.15;;;;;;;26.66;60.89;101159.69;5016556;28;20112;-63
2022/05/21 07:09:23;;;;;;;1.30;1.20;;;;;;;26.68;60.49;101159.47;5016420;28;20049;-63
2022/05/21 07:12:11;;;;;;;;;;;;;;;26.64;60.77;101158.28;5001929;28;20048;-63
2022/05/21 07:14:55;;;;;;;1.20;1.10;;;;;;;26.68;60.54;101168.53;5002293;28;19984;-63
2022/05/21 07:17:42;;;;;;;;;;;;;;;26.62;60.48;101166.69;5016691;28;20045;-63
2022/05/21 07:20:27;;;;;;;1.10;1.10;;;;;;;26.65;60.43;101165.41;5002028;28;19935;-63
2022/05/21 07:23:11;;;;;;;1.00;1.00;;;;;;;26.66;60.64;101169.81;5016151;28;20132;-63
2022/05/21 07:25:58;;;;;;;;;;;;;;;26.60;60.80;101173.44;5002065;28;20081;-63
2022/05/21 07:28:42;;;;;;;1.50;0.90;;;;;;;26.63;60.61;101167.50;5001254;28;19936;-63
2022/05/21 07:31:26;;;;;;;;;;;;;;;26.59;60.44;101160.84;5015451;28;20049;-63
2022/05/21 07:34:10;;;;;;;1.20;1.10;;;;;;;26.61;60.69;101158.69;5016092;28;19920;-63
2022/05/21 07:36:53;;;;;;;;;;;;;;;26.55;60.43;101159.63;5001447;28;20045;-63
2022/05/21 07:39:38;;;;;;;0.90;0.90;;;;;;;26.58;60.54;101159.16;5001335;28;20023;-63
2022/05/21 07:42:22;;;;;;;1.02;0.95;;;;;;;26.60;60.42;101162.50;5000961;28;20045;-63
2022/05/21 07:45:07;;;;;;;;;;;;;;;26.56;60.49;101155.81;5016426;28;20096;-63
2022/05/21 07:47:51;;;;;;;1.42;1.10;;;;;;;26.59;60.48;101161.69;5015981;28;19976;-63
2022/05/21 07:50:34;;;;;;;;;;;;;;;26.55;60.53;101167.84;4987307;28;20517;-63
2022/05/21 07:53:21;;;;;;;0.90;0.90;;;;;;;26.59;60.54;101166.31;5015620;28;19928;-63
2022/05/21 07:56:10;;;;;;;1.25;1.17;;;;;;;26.60;60.48;101157.88;5000826;28;20048;-63
2022/05/21 07:58:54;;;;;;;1.20;1.05;;;;;;;26.61;60.17;101153.22;5001670;28;20056;-63
2022/05/21 08:01:38;;;;;;;;;;;;;;;26.57;60.30;101152.03;5001021;28;20410;-65
2022/05/21 08:04:22;;;;;;;5.10;1.45;;;;;;;26.56;54.42;101153.09;4987020;28;20383;-66
2022/05/21 08:07:06;;;;;;;;;;;;;;;26.38;51.65;101153.03;5016231;28;20096;-62
2022/05/21 08:09:50;;;;;;;6.15;1.20;;;;;;;26.27;45.87;101156.50;5000633;28;20439;-65
2022/05/21 08:12:34;;;;;;;3.58;1.27;;;;;;;26.05;44.66;101168.91;5000207;28;20517;-64
2022/05/21 08:15:19;;;;;;;2.70;1.35;;;;;;;25.81;45.15;101156.84;5015287;28;20048;-63
2022/05/21 08:18:04;;;;;;;4.28;1.27;;;;;;;25.70;46.12;101164.91;5000558;28;20100;-63
2022/05/21 08:20:53;;;;;;;2.85;1.42;;;;;;;25.56;44.99;101163.34;5014883;28;20049;-58
2022/05/21 08:26:56;;;;;;;4.70;1.33;;;;;;;25.23;44.20;101168.16;5004701;28;20057;-61
2022/05/21 08:29:40;;;;;;;3.03;1.10;;;;;;;25.02;45.45;101161.06;5015258;28;20134;-55
2022/05/21 08:32:24;;;;;;;2.83;1.10;;;;;;;24.91;45.87;101159.00;5015047;28;20048;-58
2022/05/21 08:35:08;;;;;;;4.65;1.10;;;;;;;24.84;46.57;101168.28;5014961;28;20088;-56
2022/05/21 08:37:51;;;;;;;4.80;1.38;;;;;;;24.72;45.52;101161.81;5014633;28;20108;-55
2022/05/21 08:40:39;;;;;;;;;;;;;;;24.54;45.93;101158.91;5015349;28;20068;-56
2022/05/21 08:43:31;;;;;;;4.10;1.05;;;;;;;24.58;45.59;101152.81;5014159;28;19963;-51
2022/05/21 08:46:33;;;;;;;2.10;1.00;;;;;;;24.41;45.66;101158.91;4999753;28;20093;-58
2022/05/21 08:49:25;;;;;;;2.72;1.05;;;;;;;24.32;46.62;101154.75;5014761;28;20085;-56
2022/05/21 08:52:20;;;;;;;2.53;1.00;;;;;;;24.24;46.52;101144.91;5014252;28;20521;-57
2022/05/21 08:55:06;;;;;;;4.25;1.17;;;;;;;24.20;46.68;101137.34;4999624;28;20588;-51
2022/05/21 08:57:55;;;;;;;7.50;1.45;;;;;;;24.20;46.64;101145.53;4985853;28;20040;-58
2022/05/21 09:00:43;;;;;;;2.60;1.15;;;;;;;24.13;45.77;101147.41;5014478;28;20061;-63
2022/05/21 09:03:27;;;;;;;1.85;0.93;;;;;;;24.05;45.97;101141.34;4999364;28;20052;-64
2022/05/21 09:06:17;;;;;;;3.13;0.95;;;;;;;24.03;46.41;101132.56;4999618;28;20463;-64
2022/05/21 09:09:24;;;;;;;2.35;1.08;;;;;;;24.10;47.46;101126.88;5014695;28;20402;-64
2022/05/21 09:12:20;;;;;;;2.03;0.98;;;;;;;24.19;48.06;101124.78;5014025;28;20585;-64
2022/05/21 09:15:04;;;;;;;2.33;1.10;;;;;;;24.25;48.18;101127.50;4999778;28;20048;-64
2022/05/21 09:17:48;;;;;;;2.72;1.00;;;;;;;24.32;48.35;101113.84;4999379;28;20044;-65
2022/05/21 09:20:38;;;;;;;1.60;0.80;;;;;;;24.37;48.57;101111.31;5013991;28;20137;-64
2022/05/21 09:23:21;;;;;;;5.45;1.10;;;;;;;24.40;48.48;101116.38;4999241;28;20096;-64
2022/05/21 09:26:07;;;;;;;;;;;;;;;24.42;48.62;101119.69;5014556;28;20465;-64
2022/05/21 09:28:51;;;;;;;5.68;1.40;;;;;;;24.51;48.70;101112.97;4999017;28;20067;-63
2022/05/21 09:31:35;;;;;;;4.88;0.88;;;;;;;24.60;48.78;101115.28;5014063;28;20094;-64
2022/05/21 09:34:30;;;;;;;;;;;;;;;24.62;48.74;101115.06;5014223;28;20513;-64
2022/05/21 09:37:16;;;;;;;3.67;1.17;;;;;;;24.69;48.82;101110.44;5013796;28;19923;-64
2022/05/21 09:40:01;;;;;;;5.85;1.67;;;;;;;24.73;48.89;101115.22;5013700;28;20489;-64
2022/05/21 09:45:50;;;;;;;4.30;1.35;;;;;;;24.84;48.92;101106.38;5013644;28;20060;-64
2022/05/21 09:48:34;;;;;;;;;;;;;;;24.88;49.07;101121.25;4999747;28;20081;-64
2022/05/21 09:51:29;;;;;;;3.83;1.38;;;;;;;24.97;49.07;101113.66;4998477;28;19964;-64
2022/05/21 09:54:22;;;;;;;4.00;1.08;;;;;;;25.03;49.01;101107.34;5012916;28;20049;-64
2022/05/21 09:57:31;;;;;;;4.97;1.13;;;;;;;25.05;49.06;101108.81;4998505;28;20548;-63
2022/05/21 10:00:26;;;;;;;2.22;0.85;;;;;;;25.10;49.13;101102.69;5013633;28;20450;-64
2022/05/21 10:03:10;;;;;;;2.53;1.10;;;;;;;25.15;49.29;101097.41;5013511;28;20052;-64
2022/05/21 10:05:55;;;;;;;5.65;0.90;;;;;;;25.17;49.24;101087.97;4998915;28;20112;-64
2022/05/21 10:11:47;;;;;;;2.47;0.80;;;;;;;25.22;49.25;101085.44;5001324;28;19928;-64
2022/05/21 10:14:36;;;;;;;2.28;1.10;;;;;;;25.29;49.20;101088.97;4998734;28;20505;-64
2022/05/21 10:17:33;;;;;;;3.17;0.93;;;;;;;25.35;49.13;101076.31;4998652;28;20048;-64
2022/05/21 10:20:29;;;;;;;1.10;0.85;;;;;;;25.39;48.97;101063.91;4998406;28;20121;-64
2022/05/21 10:23:25;;;;;;;1.48;0.80;;;;;;;25.44;48.74;101075.00;5013712;28;20057;-64
2022/05/21 10:26:16;;;;;;;2.00;0.93;;;;;;;25.48;48.88;101062.56;5013449;28;20045;-64
2022/05/21 10:29:09;;;;;;;1.77;0.90;;;;;;;25.52;48.83;101064.63;5013271;28;20423;-64
2022/05/21 10:32:19;;;;;;;2.22;1.20;;;;;;;25.56;48.71;101070.50;5013090;28;20048;-64
2022/05/21 10:35:29;;;;;;;3.28;0.93;;;;;;;25.58;48.74;101062.91;5013420;28;20048;-64
2022/05/21 10:38:28;;;;;;;1.50;0.88;;;;;;;25.60;48.82;101056.19;5013223;28;20088;-64
2022/05/21 10:41:35;;;;;;;2.85;0.85;;;;;;;25.62;48.66;101064.16;5013145;28;20572;-64
2022/05/21 10:44:56;;;;;;;1.67;0.73;;;;;;;25.62;48.62;101064.97;4998488;28;20049;-64
2022/05/21 10:48:05;;;;;;;1.88;0.98;;;;;;;25.64;48.78;101046.47;5013043;28;20100;-64
2022/05/21 10:50:58;;;;;;;0.75;0.60;;;;;;;25.66;48.67;101051.72;5012995;28;20045;-64
2022/05/21 10:54:20;;;;;;;3.30;0.90;;;;;;;25.69;48.75;101051.25;4998160;28;20045;-64
2022/05/21 10:57:04;;;;;;;2.28;0.68;;;;;;;25.72;48.88;101048.94;5013000;28;20053;-64
2022/05/21 11:00:00;;;;;;;0.60;0.60;;;;;;;25.75;48.85;101045.72;5012986;28;20414;-59
